sensor_id;sensor_type;location;lat;lon;timestamp;P1;durP1;ratioP1;P2;durP2;ratioP2
17763;SDS011;22245;52.832;13.816;2023-06-26T00:02:33;11.45;;;8.32;;
17763;SDS011;22245;52.832;13.816;2023-06-26T00:05:55;9.98;;;8.63;;
17763;SDS011;22245;52.832;13.816;2023-06-26T00:09:20;12.60;;;8.80;;
17763;SDS011;22245;52.832;13.816;2023-06-26T00:12:43;11.43;;;8.65;;
17763;SDS011;22245;52.832;13.816;2023-06-26T00:16:05;11.20;;;8.68;;
17763;SDS011;22245;52.832;13.816;2023-06-26T00:19:27;10.68;;;8.50;;
17763;SDS011;22245;52.832;13.816;2023-06-26T00:22:48;9.60;;;8.38;;
17763;SDS011;22245;52.832;13.816;2023-06-26T00:26:11;14.60;;;8.95;;
17763;SDS011;22245;52.832;13.816;2023-06-26T00:29:35;10.10;;;8.55;;
17763;SDS011;22245;52.832;13.816;2023-06-26T00:32:58;11.65;;;8.82;;
17763;SDS011;22245;52.832;13.816;2023-06-26T00:36:20;10.05;;;8.38;;
17763;SDS011;22245;52.832;13.816;2023-06-26T00:39:43;11.82;;;8.48;;
17763;SDS011;22245;52.832;13.816;2023-06-26T00:43:05;12.75;;;8.65;;
17763;SDS011;22245;52.832;13.816;2023-06-26T00:46:28;9.75;;;8.45;;
17763;SDS011;22245;52.832;13.816;2023-06-26T00:49:50;11.93;;;9.20;;
17763;SDS011;22245;52.832;13.816;2023-06-26T00:53:13;11.80;;;8.70;;
17763;SDS011;22245;52.832;13.816;2023-06-26T00:56:34;9.35;;;8.18;;
17763;SDS011;22245;52.832;13.816;2023-06-26T00:59:58;11.52;;;8.45;;
17763;SDS011;22245;52.832;13.816;2023-06-26T01:03:24;15.32;;;8.98;;
17763;SDS011;22245;52.832;13.816;2023-06-26T01:06:48;9.80;;;8.70;;
17763;SDS011;22245;52.832;13.816;2023-06-26T01:10:12;10.13;;;7.72;;
17763;SDS011;22245;52.832;13.816;2023-06-26T01:13:33;11.23;;;7.93;;
17763;SDS011;22245;52.832;13.816;2023-06-26T01:16:57;9.52;;;8.25;;
17763;SDS011;22245;52.832;13.816;2023-06-26T01:20:20;10.73;;;8.02;;
17763;SDS011;22245;52.832;13.816;2023-06-26T01:23:46;12.77;;;8.57;;
17763;SDS011;22245;52.832;13.816;2023-06-26T01:27:19;8.73;;;7.80;;
17763;SDS011;22245;52.832;13.816;2023-06-26T01:30:44;12.85;;;8.65;;
17763;SDS011;22245;52.832;13.816;2023-06-26T01:34:09;14.93;;;8.70;;
17763;SDS011;22245;52.832;13.816;2023-06-26T01:37:31;11.20;;;8.60;;
17763;SDS011;22245;52.832;13.816;2023-06-26T01:40:53;9.63;;;8.43;;
17763;SDS011;22245;52.832;13.816;2023-06-26T01:44:20;11.45;;;7.85;;
17763;SDS011;22245;52.832;13.816;2023-06-26T01:47:48;13.05;;;7.93;;
17763;SDS011;22245;52.832;13.816;2023-06-26T01:51:12;9.40;;;7.90;;
17763;SDS011;22245;52.832;13.816;2023-06-26T01:54:37;9.23;;;7.75;;
17763;SDS011;22245;52.832;13.816;2023-06-26T01:58:04;10.32;;;8.55;;
17763;SDS011;22245;52.832;13.816;2023-06-26T02:01:28;10.20;;;7.95;;
17763;SDS011;22245;52.832;13.816;2023-06-26T02:04:51;10.88;;;8.18;;
17763;SDS011;22245;52.832;13.816;2023-06-26T02:08:13;8.93;;;7.95;;
17763;SDS011;22245;52.832;13.816;2023-06-26T02:11:41;10.68;;;8.02;;
17763;SDS011;22245;52.832;13.816;2023-06-26T02:15:03;9.43;;;7.80;;
17763;SDS011;22245;52.832;13.816;2023-06-26T02:18:28;10.40;;;7.80;;
17763;SDS011;22245;52.832;13.816;2023-06-26T02:21:51;8.88;;;7.97;;
17763;SDS011;22245;52.832;13.816;2023-06-26T02:25:13;10.55;;;7.72;;
17763;SDS011;22245;52.832;13.816;2023-06-26T02:28:35;8.48;;;7.57;;
17763;SDS011;22245;52.832;13.816;2023-06-26T02:31:57;9.52;;;7.90;;
17763;SDS011;22245;52.832;13.816;2023-06-26T02:35:20;8.68;;;6.82;;
17763;SDS011;22245;52.832;13.816;2023-06-26T02:38:42;10.60;;;7.53;;
17763;SDS011;22245;52.832;13.816;2023-06-26T02:42:04;8.18;;;7.13;;
17763;SDS011;22245;52.832;13.816;2023-06-26T02:45:26;8.80;;;7.50;;
17763;SDS011;22245;52.832;13.816;2023-06-26T02:48:48;9.55;;;7.15;;
17763;SDS011;22245;52.832;13.816;2023-06-26T02:52:11;8.15;;;7.25;;
17763;SDS011;22245;52.832;13.816;2023-06-26T02:55:34;9.80;;;7.45;;
17763;SDS011;22245;52.832;13.816;2023-06-26T02:58:55;9.23;;;7.85;;
17763;SDS011;22245;52.832;13.816;2023-06-26T03:02:19;11.50;;;8.35;;
17763;SDS011;22245;52.832;13.816;2023-06-26T03:05:41;11.15;;;7.85;;
17763;SDS011;22245;52.832;13.816;2023-06-26T03:09:04;11.05;;;8.00;;
17763;SDS011;22245;52.832;13.816;2023-06-26T03:12:26;10.68;;;8.05;;
17763;SDS011;22245;52.832;13.816;2023-06-26T03:15:47;9.10;;;8.00;;
17763;SDS011;22245;52.832;13.816;2023-06-26T03:19:09;11.63;;;7.95;;
17763;SDS011;22245;52.832;13.816;2023-06-26T03:22:51;10.15;;;7.93;;
17763;SDS011;22245;52.832;13.816;2023-06-26T03:26:15;10.98;;;7.55;;
17763;SDS011;22245;52.832;13.816;2023-06-26T03:29:39;10.00;;;7.90;;
17763;SDS011;22245;52.832;13.816;2023-06-26T03:33:01;9.20;;;8.23;;
17763;SDS011;22245;52.832;13.816;2023-06-26T03:36:23;8.23;;;7.43;;
17763;SDS011;22245;52.832;13.816;2023-06-26T03:39:45;9.93;;;7.38;;
17763;SDS011;22245;52.832;13.816;2023-06-26T03:43:09;11.50;;;7.70;;
17763;SDS011;22245;52.832;13.816;2023-06-26T03:46:38;9.40;;;8.13;;
17763;SDS011;22245;52.832;13.816;2023-06-26T03:50:00;10.23;;;7.70;;
17763;SDS011;22245;52.832;13.816;2023-06-26T03:53:22;12.23;;;8.40;;
17763;SDS011;22245;52.832;13.816;2023-06-26T03:56:44;9.32;;;8.43;;
17763;SDS011;22245;52.832;13.816;2023-06-26T04:00:08;14.25;;;9.57;;
17763;SDS011;22245;52.832;13.816;2023-06-26T04:03:35;11.82;;;9.15;;
17763;SDS011;22245;52.832;13.816;2023-06-26T04:06:57;13.38;;;9.63;;
17763;SDS011;22245;52.832;13.816;2023-06-26T04:10:19;12.93;;;10.30;;
17763;SDS011;22245;52.832;13.816;2023-06-26T04:13:41;14.02;;;9.30;;
17763;SDS011;22245;52.832;13.816;2023-06-26T04:17:04;10.80;;;9.50;;
17763;SDS011;22245;52.832;13.816;2023-06-26T04:20:26;12.77;;;9.40;;
17763;SDS011;22245;52.832;13.816;2023-06-26T04:23:48;10.90;;;8.05;;
17763;SDS011;22245;52.832;13.816;2023-06-26T04:27:10;11.43;;;9.38;;
17763;SDS011;22245;52.832;13.816;2023-06-26T04:30:33;13.80;;;8.73;;
17763;SDS011;22245;52.832;13.816;2023-06-26T04:33:56;11.82;;;7.93;;
17763;SDS011;22245;52.832;13.816;2023-06-26T04:37:20;11.80;;;8.60;;
17763;SDS011;22245;52.832;13.816;2023-06-26T04:40:42;12.45;;;9.23;;
17763;SDS011;22245;52.832;13.816;2023-06-26T04:44:03;12.77;;;9.02;;
17763;SDS011;22245;52.832;13.816;2023-06-26T04:47:25;11.90;;;8.45;;
17763;SDS011;22245;52.832;13.816;2023-06-26T04:50:49;11.18;;;9.98;;
17763;SDS011;22245;52.832;13.816;2023-06-26T04:54:14;13.20;;;11.30;;
17763;SDS011;22245;52.832;13.816;2023-06-26T04:57:36;15.77;;;11.75;;
17763;SDS011;22245;52.832;13.816;2023-06-26T05:00:58;13.07;;;10.88;;
17763;SDS011;22245;52.832;13.816;2023-06-26T05:04:22;13.60;;;12.00;;
17763;SDS011;22245;52.832;13.816;2023-06-26T05:07:45;16.02;;;11.52;;
17763;SDS011;22245;52.832;13.816;2023-06-26T05:11:07;13.48;;;11.50;;
17763;SDS011;22245;52.832;13.816;2023-06-26T05:14:29;15.18;;;11.90;;
17763;SDS011;22245;52.832;13.816;2023-06-26T05:17:51;16.70;;;11.68;;
17763;SDS011;22245;52.832;13.816;2023-06-26T05:21:12;15.27;;;11.32;;
17763;SDS011;22245;52.832;13.816;2023-06-26T05:24:37;13.30;;;11.40;;
17763;SDS011;22245;52.832;13.816;2023-06-26T05:28:00;13.95;;;11.73;;
17763;SDS011;22245;52.832;13.816;2023-06-26T05:31:25;15.02;;;11.38;;
17763;SDS011;22245;52.832;13.816;2023-06-26T05:34:48;18.67;;;11.45;;
17763;SDS011;22245;52.832;13.816;2023-06-26T05:38:10;16.42;;;11.77;;
17763;SDS011;22245;52.832;13.816;2023-06-26T05:41:35;16.42;;;10.98;;
17763;SDS011;22245;52.832;13.816;2023-06-26T05:44:57;15.70;;;11.93;;
17763;SDS011;22245;52.832;13.816;2023-06-26T05:48:19;13.85;;;11.50;;
17763;SDS011;22245;52.832;13.816;2023-06-26T05:51:41;14.40;;;11.85;;
17763;SDS011;22245;52.832;13.816;2023-06-26T05:55:03;12.85;;;11.55;;
17763;SDS011;22245;52.832;13.816;2023-06-26T05:58:28;13.50;;;11.50;;
17763;SDS011;22245;52.832;13.816;2023-06-26T06:01:50;16.50;;;11.70;;
17763;SDS011;22245;52.832;13.816;2023-06-26T06:05:12;15.15;;;12.00;;
17763;SDS011;22245;52.832;13.816;2023-06-26T06:08:34;15.35;;;11.82;;
17763;SDS011;22245;52.832;13.816;2023-06-26T06:11:56;11.63;;;9.98;;
17763;SDS011;22245;52.832;13.816;2023-06-26T06:15:19;13.55;;;9.68;;
17763;SDS011;22245;52.832;13.816;2023-06-26T06:18:40;15.05;;;11.23;;
17763;SDS011;22245;52.832;13.816;2023-06-26T06:22:02;14.82;;;12.40;;
17763;SDS011;22245;52.832;13.816;2023-06-26T06:25:24;16.00;;;13.10;;
17763;SDS011;22245;52.832;13.816;2023-06-26T06:28:46;13.05;;;10.48;;
17763;SDS011;22245;52.832;13.816;2023-06-26T06:32:09;18.60;;;12.32;;
17763;SDS011;22245;52.832;13.816;2023-06-26T06:35:32;15.25;;;12.32;;
17763;SDS011;22245;52.832;13.816;2023-06-26T06:38:54;17.05;;;12.57;;
17763;SDS011;22245;52.832;13.816;2023-06-26T06:42:15;14.35;;;11.30;;
17763;SDS011;22245;52.832;13.816;2023-06-26T06:45:37;14.77;;;12.07;;
17763;SDS011;22245;52.832;13.816;2023-06-26T06:49:00;14.13;;;11.30;;
17763;SDS011;22245;52.832;13.816;2023-06-26T06:52:24;15.05;;;11.60;;
17763;SDS011;22245;52.832;13.816;2023-06-26T06:55:46;15.10;;;11.63;;
17763;SDS011;22245;52.832;13.816;2023-06-26T06:59:07;16.80;;;10.95;;
17763;SDS011;22245;52.832;13.816;2023-06-26T07:02:29;13.35;;;10.70;;
17763;SDS011;22245;52.832;13.816;2023-06-26T07:05:53;13.13;;;10.43;;
17763;SDS011;22245;52.832;13.816;2023-06-26T07:09:14;14.75;;;10.18;;
17763;SDS011;22245;52.832;13.816;2023-06-26T07:12:36;13.57;;;10.02;;
17763;SDS011;22245;52.832;13.816;2023-06-26T07:15:58;14.38;;;10.05;;
17763;SDS011;22245;52.832;13.816;2023-06-26T07:19:20;13.77;;;9.20;;
17763;SDS011;22245;52.832;13.816;2023-06-26T07:22:43;12.90;;;9.13;;
17763;SDS011;22245;52.832;13.816;2023-06-26T07:26:05;11.00;;;8.18;;
17763;SDS011;22245;52.832;13.816;2023-06-26T07:29:27;12.00;;;9.07;;
17763;SDS011;22245;52.832;13.816;2023-06-26T07:32:48;12.20;;;8.15;;
17763;SDS011;22245;52.832;13.816;2023-06-26T07:36:10;10.35;;;8.45;;
17763;SDS011;22245;52.832;13.816;2023-06-26T07:39:34;12.80;;;8.07;;
17763;SDS011;22245;52.832;13.816;2023-06-26T07:42:56;8.57;;;7.50;;
17763;SDS011;22245;52.832;13.816;2023-06-26T07:46:18;10.07;;;7.18;;
17763;SDS011;22245;52.832;13.816;2023-06-26T07:49:40;9.15;;;6.45;;
17763;SDS011;22245;52.832;13.816;2023-06-26T07:53:02;8.25;;;5.95;;
17763;SDS011;22245;52.832;13.816;2023-06-26T07:56:27;8.63;;;6.20;;
17763;SDS011;22245;52.832;13.816;2023-06-26T07:59:49;8.45;;;5.90;;
17763;SDS011;22245;52.832;13.816;2023-06-26T08:03:11;7.35;;;5.85;;
17763;SDS011;22245;52.832;13.816;2023-06-26T08:06:54;7.15;;;6.00;;
17763;SDS011;22245;52.832;13.816;2023-06-26T08:10:17;7.50;;;5.82;;
17763;SDS011;22245;52.832;13.816;2023-06-26T08:13:41;8.20;;;5.75;;
17763;SDS011;22245;52.832;13.816;2023-06-26T08:17:03;6.53;;;5.75;;
17763;SDS011;22245;52.832;13.816;2023-06-26T08:20:25;7.90;;;5.55;;
17763;SDS011;22245;52.832;13.816;2023-06-26T08:23:48;6.72;;;5.72;;
17763;SDS011;22245;52.832;13.816;2023-06-26T08:27:10;7.30;;;5.97;;
17763;SDS011;22245;52.832;13.816;2023-06-26T08:30:33;17.40;;;6.40;;
17763;SDS011;22245;52.832;13.816;2023-06-26T08:33:55;7.35;;;5.97;;
17763;SDS011;22245;52.832;13.816;2023-06-26T08:37:16;7.07;;;6.10;;
17763;SDS011;22245;52.832;13.816;2023-06-26T08:40:38;8.65;;;6.25;;
17763;SDS011;22245;52.832;13.816;2023-06-26T08:44:00;7.05;;;6.30;;
17763;SDS011;22245;52.832;13.816;2023-06-26T08:47:24;7.03;;;6.22;;
17763;SDS011;22245;52.832;13.816;2023-06-26T08:50:46;7.97;;;6.75;;
17763;SDS011;22245;52.832;13.816;2023-06-26T08:54:10;12.35;;;7.32;;
17763;SDS011;22245;52.832;13.816;2023-06-26T08:57:36;6.97;;;6.20;;
17763;SDS011;22245;52.832;13.816;2023-06-26T09:00:59;7.43;;;6.15;;
17763;SDS011;22245;52.832;13.816;2023-06-26T09:04:23;10.32;;;6.25;;
17763;SDS011;22245;52.832;13.816;2023-06-26T09:07:45;8.60;;;6.40;;
17763;SDS011;22245;52.832;13.816;2023-06-26T09:11:07;8.10;;;6.35;;
17763;SDS011;22245;52.832;13.816;2023-06-26T09:14:29;8.00;;;7.00;;
17763;SDS011;22245;52.832;13.816;2023-06-26T09:17:51;7.20;;;6.18;;
17763;SDS011;22245;52.832;13.816;2023-06-26T09:21:21;8.65;;;5.70;;
17763;SDS011;22245;52.832;13.816;2023-06-26T09:24:44;8.25;;;6.13;;
17763;SDS011;22245;52.832;13.816;2023-06-26T09:28:07;11.82;;;7.35;;
17763;SDS011;22245;52.832;13.816;2023-06-26T09:31:30;7.90;;;6.72;;
17763;SDS011;22245;52.832;13.816;2023-06-26T09:34:59;7.03;;;6.32;;
17763;SDS011;22245;52.832;13.816;2023-06-26T09:38:25;7.68;;;6.78;;
17763;SDS011;22245;52.832;13.816;2023-06-26T09:41:46;8.38;;;6.45;;
17763;SDS011;22245;52.832;13.816;2023-06-26T09:45:12;7.88;;;6.85;;
17763;SDS011;22245;52.832;13.816;2023-06-26T09:48:39;6.68;;;6.07;;
17763;SDS011;22245;52.832;13.816;2023-06-26T09:52:01;8.23;;;6.57;;
17763;SDS011;22245;52.832;13.816;2023-06-26T09:55:25;7.25;;;6.55;;
17763;SDS011;22245;52.832;13.816;2023-06-26T09:58:47;7.50;;;6.63;;
17763;SDS011;22245;52.832;13.816;2023-06-26T10:02:10;7.57;;;6.75;;
17763;SDS011;22245;52.832;13.816;2023-06-26T10:05:33;7.80;;;6.57;;
17763;SDS011;22245;52.832;13.816;2023-06-26T10:08:55;8.85;;;6.72;;
17763;SDS011;22245;52.832;13.816;2023-06-26T10:12:22;7.03;;;6.32;;
17763;SDS011;22245;52.832;13.816;2023-06-26T10:15:50;7.18;;;6.30;;
17763;SDS011;22245;52.832;13.816;2023-06-26T10:19:13;6.45;;;5.47;;
17763;SDS011;22245;52.832;13.816;2023-06-26T10:22:37;7.00;;;5.97;;
17763;SDS011;22245;52.832;13.816;2023-06-26T10:26:02;8.68;;;5.72;;
17763;SDS011;22245;52.832;13.816;2023-06-26T10:29:26;9.15;;;6.10;;
17763;SDS011;22245;52.832;13.816;2023-06-26T10:32:49;7.45;;;5.90;;
17763;SDS011;22245;52.832;13.816;2023-06-26T10:36:12;5.90;;;5.30;;
17763;SDS011;22245;52.832;13.816;2023-06-26T10:39:48;7.28;;;5.97;;
17763;SDS011;22245;52.832;13.816;2023-06-26T10:43:12;8.50;;;6.80;;
17763;SDS011;22245;52.832;13.816;2023-06-26T10:46:49;6.70;;;5.55;;
17763;SDS011;22245;52.832;13.816;2023-06-26T10:50:16;6.13;;;5.47;;
17763;SDS011;22245;52.832;13.816;2023-06-26T10:53:43;6.45;;;5.10;;
17763;SDS011;22245;52.832;13.816;2023-06-26T10:57:11;5.90;;;5.10;;
17763;SDS011;22245;52.832;13.816;2023-06-26T11:00:32;6.80;;;5.53;;
17763;SDS011;22245;52.832;13.816;2023-06-26T11:07:42;9.90;;;7.60;;
17763;SDS011;22245;52.832;13.816;2023-06-26T11:11:54;6.72;;;5.60;;
17763;SDS011;22245;52.832;13.816;2023-06-26T11:15:26;6.78;;;6.07;;
17763;SDS011;22245;52.832;13.816;2023-06-26T11:18:49;9.68;;;6.03;;
17763;SDS011;22245;52.832;13.816;2023-06-26T11:22:15;8.27;;;5.32;;
17763;SDS011;22245;52.832;13.816;2023-06-26T11:25:38;6.68;;;5.32;;
17763;SDS011;22245;52.832;13.816;2023-06-26T11:28:59;6.75;;;5.50;;
17763;SDS011;22245;52.832;13.816;2023-06-26T11:32:21;7.28;;;5.47;;
17763;SDS011;22245;52.832;13.816;2023-06-26T11:35:43;7.68;;;5.88;;
17763;SDS011;22245;52.832;13.816;2023-06-26T11:39:07;6.00;;;5.40;;
17763;SDS011;22245;52.832;13.816;2023-06-26T11:42:29;6.47;;;5.50;;
17763;SDS011;22245;52.832;13.816;2023-06-26T11:45:50;6.05;;;5.15;;
17763;SDS011;22245;52.832;13.816;2023-06-26T11:49:12;5.88;;;5.00;;
17763;SDS011;22245;52.832;13.816;2023-06-26T11:52:41;8.70;;;5.20;;
17763;SDS011;22245;52.832;13.816;2023-06-26T11:56:08;5.93;;;5.18;;
17763;SDS011;22245;52.832;13.816;2023-06-26T11:59:32;5.97;;;5.00;;
17763;SDS011;22245;52.832;13.816;2023-06-26T12:02:56;5.82;;;5.28;;
17763;SDS011;22245;52.832;13.816;2023-06-26T12:06:19;6.00;;;5.35;;
17763;SDS011;22245;52.832;13.816;2023-06-26T12:09:41;7.10;;;5.45;;
17763;SDS011;22245;52.832;13.816;2023-06-26T12:13:07;6.03;;;5.35;;
17763;SDS011;22245;52.832;13.816;2023-06-26T12:16:29;7.13;;;5.78;;
17763;SDS011;22245;52.832;13.816;2023-06-26T12:19:51;7.13;;;6.10;;
17763;SDS011;22245;52.832;13.816;2023-06-26T12:23:13;6.45;;;5.38;;
17763;SDS011;22245;52.832;13.816;2023-06-26T12:26:35;6.18;;;5.47;;
17763;SDS011;22245;52.832;13.816;2023-06-26T12:29:59;8.07;;;6.28;;
17763;SDS011;22245;52.832;13.816;2023-06-26T12:33:26;10.77;;;6.57;;
17763;SDS011;22245;52.832;13.816;2023-06-26T12:36:49;7.97;;;6.07;;
17763;SDS011;22245;52.832;13.816;2023-06-26T12:40:18;9.63;;;6.22;;
17763;SDS011;22245;52.832;13.816;2023-06-26T12:43:43;8.40;;;6.40;;
17763;SDS011;22245;52.832;13.816;2023-06-26T12:47:06;6.60;;;6.00;;
17763;SDS011;22245;52.832;13.816;2023-06-26T12:50:29;8.20;;;6.47;;
17763;SDS011;22245;52.832;13.816;2023-06-26T12:53:58;12.35;;;6.80;;
17763;SDS011;22245;52.832;13.816;2023-06-26T12:57:20;6.60;;;6.00;;
17763;SDS011;22245;52.832;13.816;2023-06-26T13:00:42;8.05;;;6.50;;
17763;SDS011;22245;52.832;13.816;2023-06-26T13:04:05;8.60;;;5.97;;
17763;SDS011;22245;52.832;13.816;2023-06-26T13:07:28;6.93;;;6.13;;
17763;SDS011;22245;52.832;13.816;2023-06-26T13:10:50;7.20;;;5.93;;
17763;SDS011;22245;52.832;13.816;2023-06-26T13:14:13;7.15;;;6.32;;
17763;SDS011;22245;52.832;13.816;2023-06-26T13:17:35;7.90;;;6.30;;
17763;SDS011;22245;52.832;13.816;2023-06-26T13:20:58;7.55;;;5.82;;
17763;SDS011;22245;52.832;13.816;2023-06-26T13:24:21;6.85;;;5.78;;
17763;SDS011;22245;52.832;13.816;2023-06-26T13:27:42;6.32;;;5.68;;
17763;SDS011;22245;52.832;13.816;2023-06-26T13:31:04;6.63;;;6.00;;
17763;SDS011;22245;52.832;13.816;2023-06-26T13:34:27;10.05;;;6.10;;
17763;SDS011;22245;52.832;13.816;2023-06-26T13:37:51;7.13;;;5.35;;
17763;SDS011;22245;52.832;13.816;2023-06-26T13:41:13;7.50;;;5.47;;
17763;SDS011;22245;52.832;13.816;2023-06-26T13:44:35;7.30;;;5.75;;
17763;SDS011;22245;52.832;13.816;2023-06-26T13:48:19;7.03;;;5.32;;
17763;SDS011;22245;52.832;13.816;2023-06-26T13:51:40;8.25;;;6.05;;
17763;SDS011;22245;52.832;13.816;2023-06-26T13:55:08;8.95;;;6.47;;
17763;SDS011;22245;52.832;13.816;2023-06-26T13:58:30;7.35;;;5.97;;
17763;SDS011;22245;52.832;13.816;2023-06-26T14:01:53;6.57;;;5.88;;
17763;SDS011;22245;52.832;13.816;2023-06-26T14:05:15;6.93;;;5.90;;
17763;SDS011;22245;52.832;13.816;2023-06-26T14:08:52;6.68;;;5.97;;
17763;SDS011;22245;52.832;13.816;2023-06-26T14:12:16;9.38;;;6.20;;
17763;SDS011;22245;52.832;13.816;2023-06-26T14:15:38;10.48;;;6.10;;
17763;SDS011;22245;52.832;13.816;2023-06-26T14:19:01;9.38;;;7.10;;
17763;SDS011;22245;52.832;13.816;2023-06-26T14:22:23;10.90;;;8.82;;
17763;SDS011;22245;52.832;13.816;2023-06-26T14:25:44;7.13;;;6.43;;
17763;SDS011;22245;52.832;13.816;2023-06-26T14:29:10;10.27;;;6.60;;
17763;SDS011;22245;52.832;13.816;2023-06-26T14:32:33;9.70;;;6.47;;
17763;SDS011;22245;52.832;13.816;2023-06-26T14:35:55;7.57;;;6.60;;
17763;SDS011;22245;52.832;13.816;2023-06-26T14:39:17;8.15;;;6.25;;
17763;SDS011;22245;52.832;13.816;2023-06-26T14:42:40;7.63;;;5.65;;
17763;SDS011;22245;52.832;13.816;2023-06-26T14:46:05;14.10;;;5.50;;
17763;SDS011;22245;52.832;13.816;2023-06-26T14:49:27;11.00;;;5.18;;
17763;SDS011;22245;52.832;13.816;2023-06-26T14:52:49;18.58;;;5.50;;
17763;SDS011;22245;52.832;13.816;2023-06-26T14:56:11;16.25;;;5.60;;
17763;SDS011;22245;52.832;13.816;2023-06-26T14:59:33;16.33;;;6.55;;
17763;SDS011;22245;52.832;13.816;2023-06-26T15:02:56;13.32;;;6.50;;
17763;SDS011;22245;52.832;13.816;2023-06-26T15:06:18;10.18;;;5.75;;
17763;SDS011;22245;52.832;13.816;2023-06-26T15:09:40;10.30;;;5.78;;
17763;SDS011;22245;52.832;13.816;2023-06-26T15:13:01;10.05;;;6.40;;
17763;SDS011;22245;52.832;13.816;2023-06-26T15:16:24;11.70;;;5.68;;
17763;SDS011;22245;52.832;13.816;2023-06-26T15:19:47;11.20;;;6.10;;
17763;SDS011;22245;52.832;13.816;2023-06-26T15:23:08;10.60;;;5.97;;
17763;SDS011;22245;52.832;13.816;2023-06-26T15:26:30;13.13;;;7.10;;
17763;SDS011;22245;52.832;13.816;2023-06-26T15:29:51;14.55;;;7.18;;
17763;SDS011;22245;52.832;13.816;2023-06-26T15:33:13;9.68;;;6.53;;
17763;SDS011;22245;52.832;13.816;2023-06-26T15:36:37;8.88;;;6.65;;
17763;SDS011;22245;52.832;13.816;2023-06-26T15:39:58;7.40;;;5.93;;
17763;SDS011;22245;52.832;13.816;2023-06-26T15:43:20;8.48;;;5.85;;
17763;SDS011;22245;52.832;13.816;2023-06-26T15:46:42;8.05;;;6.30;;
17763;SDS011;22245;52.832;13.816;2023-06-26T15:50:04;9.55;;;6.53;;
17763;SDS011;22245;52.832;13.816;2023-06-26T15:53:35;12.57;;;7.07;;
17763;SDS011;22245;52.832;13.816;2023-06-26T15:56:58;10.18;;;6.65;;
17763;SDS011;22245;52.832;13.816;2023-06-26T16:00:20;9.40;;;6.35;;
17763;SDS011;22245;52.832;13.816;2023-06-26T16:03:42;13.10;;;8.30;;
17763;SDS011;22245;52.832;13.816;2023-06-26T16:07:04;19.17;;;8.35;;
17763;SDS011;22245;52.832;13.816;2023-06-26T16:10:27;9.07;;;6.82;;
17763;SDS011;22245;52.832;13.816;2023-06-26T16:13:49;9.23;;;7.15;;
17763;SDS011;22245;52.832;13.816;2023-06-26T16:17:12;10.43;;;7.38;;
17763;SDS011;22245;52.832;13.816;2023-06-26T16:20:33;11.55;;;7.70;;
17763;SDS011;22245;52.832;13.816;2023-06-26T16:23:56;11.13;;;7.90;;
17763;SDS011;22245;52.832;13.816;2023-06-26T16:27:19;10.13;;;8.43;;
17763;SDS011;22245;52.832;13.816;2023-06-26T16:30:40;11.13;;;8.35;;
17763;SDS011;22245;52.832;13.816;2023-06-26T16:34:03;11.60;;;8.95;;
17763;SDS011;22245;52.832;13.816;2023-06-26T16:37:24;11.23;;;9.15;;
17763;SDS011;22245;52.832;13.816;2023-06-26T16:40:46;13.27;;;8.43;;
17763;SDS011;22245;52.832;13.816;2023-06-26T16:44:09;12.18;;;8.43;;
17763;SDS011;22245;52.832;13.816;2023-06-26T16:47:31;12.70;;;9.48;;
17763;SDS011;22245;52.832;13.816;2023-06-26T16:50:58;12.88;;;9.07;;
17763;SDS011;22245;52.832;13.816;2023-06-26T16:54:20;11.20;;;9.10;;
17763;SDS011;22245;52.832;13.816;2023-06-26T16:57:42;12.23;;;9.75;;
17763;SDS011;22245;52.832;13.816;2023-06-26T17:01:05;13.93;;;8.93;;
17763;SDS011;22245;52.832;13.816;2023-06-26T17:04:27;11.40;;;9.48;;
17763;SDS011;22245;52.832;13.816;2023-06-26T17:07:50;9.38;;;8.27;;
17763;SDS011;22245;52.832;13.816;2023-06-26T17:11:11;10.10;;;8.15;;
17763;SDS011;22245;52.832;13.816;2023-06-26T17:14:33;15.55;;;9.07;;
17763;SDS011;22245;52.832;13.816;2023-06-26T17:17:56;16.20;;;9.95;;
17763;SDS011;22245;52.832;13.816;2023-06-26T17:21:18;11.90;;;9.00;;
17763;SDS011;22245;52.832;13.816;2023-06-26T17:24:40;12.77;;;8.93;;
17763;SDS011;22245;52.832;13.816;2023-06-26T17:28:02;13.38;;;10.48;;
17763;SDS011;22245;52.832;13.816;2023-06-26T17:31:25;12.30;;;9.55;;
17763;SDS011;22245;52.832;13.816;2023-06-26T17:34:48;13.18;;;10.38;;
17763;SDS011;22245;52.832;13.816;2023-06-26T17:38:11;14.23;;;10.73;;
17763;SDS011;22245;52.832;13.816;2023-06-26T17:41:33;11.85;;;9.90;;
17763;SDS011;22245;52.832;13.816;2023-06-26T17:44:56;17.52;;;11.65;;
17763;SDS011;22245;52.832;13.816;2023-06-26T17:48:19;14.05;;;10.60;;
17763;SDS011;22245;52.832;13.816;2023-06-26T17:51:43;14.73;;;10.57;;
17763;SDS011;22245;52.832;13.816;2023-06-26T17:55:06;15.75;;;11.13;;
17763;SDS011;22245;52.832;13.816;2023-06-26T17:58:29;12.77;;;9.70;;
17763;SDS011;22245;52.832;13.816;2023-06-26T18:01:50;14.98;;;10.75;;
17763;SDS011;22245;52.832;13.816;2023-06-26T18:05:15;14.48;;;10.50;;
17763;SDS011;22245;52.832;13.816;2023-06-26T18:08:38;12.23;;;10.48;;
17763;SDS011;22245;52.832;13.816;2023-06-26T18:12:00;12.32;;;10.23;;
17763;SDS011;22245;52.832;13.816;2023-06-26T18:15:22;13.95;;;9.50;;
17763;SDS011;22245;52.832;13.816;2023-06-26T18:18:43;14.65;;;9.82;;
17763;SDS011;22245;52.832;13.816;2023-06-26T18:22:05;14.48;;;9.25;;
17763;SDS011;22245;52.832;13.816;2023-06-26T18:25:28;11.63;;;9.73;;
17763;SDS011;22245;52.832;13.816;2023-06-26T18:28:50;14.40;;;9.50;;
17763;SDS011;22245;52.832;13.816;2023-06-26T18:32:13;11.45;;;9.48;;
17763;SDS011;22245;52.832;13.816;2023-06-26T18:35:38;13.35;;;9.95;;
17763;SDS011;22245;52.832;13.816;2023-06-26T18:39:00;12.50;;;10.45;;
17763;SDS011;22245;52.832;13.816;2023-06-26T18:42:24;13.63;;;10.18;;
17763;SDS011;22245;52.832;13.816;2023-06-26T18:45:46;15.70;;;10.77;;
17763;SDS011;22245;52.832;13.816;2023-06-26T18:49:07;13.90;;;9.90;;
17763;SDS011;22245;52.832;13.816;2023-06-26T18:52:29;15.35;;;10.60;;
17763;SDS011;22245;52.832;13.816;2023-06-26T18:55:51;12.88;;;10.05;;
17763;SDS011;22245;52.832;13.816;2023-06-26T18:59:14;16.23;;;11.10;;
17763;SDS011;22245;52.832;13.816;2023-06-26T19:02:37;13.90;;;10.82;;
17763;SDS011;22245;52.832;13.816;2023-06-26T19:05:59;13.18;;;9.70;;
17763;SDS011;22245;52.832;13.816;2023-06-26T19:09:21;14.85;;;10.10;;
17763;SDS011;22245;52.832;13.816;2023-06-26T19:12:44;13.05;;;10.18;;
17763;SDS011;22245;52.832;13.816;2023-06-26T19:16:10;12.68;;;10.20;;
17763;SDS011;22245;52.832;13.816;2023-06-26T19:19:33;12.27;;;9.93;;
17763;SDS011;22245;52.832;13.816;2023-06-26T19:22:55;15.48;;;10.57;;
17763;SDS011;22245;52.832;13.816;2023-06-26T19:26:16;13.60;;;10.38;;
17763;SDS011;22245;52.832;13.816;2023-06-26T19:29:38;18.52;;;11.35;;
17763;SDS011;22245;52.832;13.816;2023-06-26T19:33:02;15.32;;;11.38;;
17763;SDS011;22245;52.832;13.816;2023-06-26T19:36:24;13.90;;;11.05;;
17763;SDS011;22245;52.832;13.816;2023-06-26T19:39:46;23.92;;;11.45;;
17763;SDS011;22245;52.832;13.816;2023-06-26T19:43:07;13.63;;;10.90;;
17763;SDS011;22245;52.832;13.816;2023-06-26T19:46:29;14.63;;;12.00;;
17763;SDS011;22245;52.832;13.816;2023-06-26T19:49:52;15.93;;;11.77;;
17763;SDS011;22245;52.832;13.816;2023-06-26T19:53:14;17.27;;;11.85;;
17763;SDS011;22245;52.832;13.816;2023-06-26T19:56:36;16.83;;;11.93;;